New Berlin, NY

4:38 AM EST on December 28, 2014 (GMT -0500)
APRSWXNET New Berlin NY US | Change Station
CLOSE
Current Station
Personal Weather Station
Location: New Lisbon, NY
Elevation: 1092 ft
Nearby Weather Stations

Elev 1092 ft 42.58 °N, 75.33 °W | Updated 45 minutes ago

Rain
Rain
41 °F
Feels Like 41 °F
N
1
Wind Variable Wind from South
Gusts 2.0 mph

Today
High -- | Low -- °F
--% Chance of Precip.
Yesterday
High -- | Low -- °F
Precip. -- in
7:30 AM 4:35 PM
Waxing Crescent, 46% visible
Pressure 29.84 in
Visibility 9.0 miles
Clouds Overcast 2800 ft
Windchill 41 °F
Dew Point 39 °F
Humidity 93%
Rainfall 0.22 in
Snow Depth Not available.
UV 0 out of 12
Pollen .10 out of 12
Air Quality Not available.
Flu Activity Not available.
SPECI KRME 280914Z AUTO 15003KT 9SM RA OVC028 07/06 A2984 RMK AO2 P0001 T00670056

More Conditions Fewer Conditions

Pressure 29.84 in
Visibility 9.0 miles
Clouds Overcast 2800 ft
Windchill 41 °F
Dew Point 39 °F
Humidity 93%
Rainfall 0.22 in
Snow Depth Not available.
UV 0 out of 12
Pollen .10 out of 12
Air Quality Not available.
Flu Activity Not available.
SPECI KRME 280914Z AUTO 15003KT 9SM RA OVC028 07/06 A2984 RMK AO2 P0001 T00670056

More Conditions Fewer Conditions

Nowcast | as of 12:57 am EST on December 28, 2014

Rain showers will increase in coverage over the region early this morning...especially between 4 and 7 am.

×

10-Day Weather Forecast

Almanac

Astronomy

Dec. 28, 2014 Rise Set
Actual Time
Civil Twilight
Nautical Twilight
Astronomical Twilight
Moon
Length of Visible Light
Length of Day
Tomorrow will be .
, % of the Moon is Illuminated

Today's Extremes

State Highs State Lows

Community

WunderPhotos

Upload Photos

1,781,207 photos uploaded!

WunderBlogs® & News

Nearby

Air Quality

  Air Quality AQ Index Pollutant
Not available.

Snow Depth

Station Depth Elevation

Earthquake Activity

City Distance Mag. Time & Date
Minimum magnitude displayed is 2.5.

Coastal Water Temperatures

Place Temperature

Nearby Weather Stations